Aviation Digital Data Service (ADDS)

Output produced by METARs form (0430 UTC 26 June 2019)
found at http://www.aviationweather.gov/metar/data/
 
METAR text: OERK 260400Z 31005KT CAVOK 33/M01 Q1011 NOSIG
Conditions at: OERK (RIYADH/KING KHAL, SA) observed 0400 UTC 26 June 2019
Temperature: 33.0°C (91°F)
Dewpoint: -1.0°C (30°F) [RH = 11%]
Pressure (altimeter): 29.85 inches Hg (1011.0 mb)
Winds: from the NW (310 degrees) at 6 MPH (5 knots; 2.6 m/s)
Visibility: 6 or more miles (10+ km)
Ceiling: ceiling and visibility are OK
Clouds: unknown
Weather: no significant weather observed at this time

METAR text: OERK 260300Z 30005KT CAVOK 29/M03 Q1010 NOSIG
Conditions at: OERK (RIYADH/KING KHAL, SA) observed 0300 UTC 26 June 2019
Temperature: 29.0°C (84°F)
Dewpoint: -3.0°C (27°F) [RH = 12%]
Pressure (altimeter): 29.82 inches Hg (1010.0 mb)
Winds: from the WNW (300 degrees) at 6 MPH (5 knots; 2.6 m/s)
Visibility: 6 or more miles (10+ km)
Ceiling: ceiling and visibility are OK
Clouds: unknown
Weather: no significant weather observed at this time

METAR text: OERK 260200Z 29006KT CAVOK 30/M02 Q1010 NOSIG
Conditions at: OERK (RIYADH/KING KHAL, SA) observed 0200 UTC 26 June 2019
Temperature: 30.0°C (86°F)
Dewpoint: -2.0°C (28°F) [RH = 12%]
Pressure (altimeter): 29.82 inches Hg (1010.0 mb)
Winds: from the WNW (290 degrees) at 7 MPH (6 knots; 3.1 m/s)
Visibility: 6 or more miles (10+ km)
Ceiling: ceiling and visibility are OK
Clouds: unknown
Weather: no significant weather observed at this time

METAR text: OERK 260100Z 30005KT CAVOK 30/M03 Q1009 NOSIG
Conditions at: OERK (RIYADH/KING KHAL, SA) observed 0100 UTC 26 June 2019
Temperature: 30.0°C (86°F)
Dewpoint: -3.0°C (27°F) [RH = 12%]
Pressure (altimeter): 29.79 inches Hg (1009.0 mb)
Winds: from the WNW (300 degrees) at 6 MPH (5 knots; 2.6 m/s)
Visibility: 6 or more miles (10+ km)
Ceiling: ceiling and visibility are OK
Clouds: unknown
Weather: no significant weather observed at this time

METAR text: OERK 260000Z 32005KT CAVOK 31/M03 Q1009 NOSIG
Conditions at: OERK (RIYADH/KING KHAL, SA) observed 0000 UTC 26 June 2019
Temperature: 31.0°C (88°F)
Dewpoint: -3.0°C (27°F) [RH = 11%]
Pressure (altimeter): 29.79 inches Hg (1009.0 mb)
Winds: from the NW (320 degrees) at 6 MPH (5 knots; 2.6 m/s)
Visibility: 6 or more miles (10+ km)
Ceiling: ceiling and visibility are OK
Clouds: unknown
Weather: no significant weather observed at this time

METAR text: OERK 252300Z 31006KT CAVOK 32/M02 Q1009 NOSIG
Conditions at: OERK (RIYADH/KING KHAL, SA) observed 2300 UTC 25 June 2019
Temperature: 32.0°C (90°F)
Dewpoint: -2.0°C (28°F) [RH = 11%]
Pressure (altimeter): 29.79 inches Hg (1009.0 mb)
Winds: from the NW (310 degrees) at 7 MPH (6 knots; 3.1 m/s)
Visibility: 6 or more miles (10+ km)
Ceiling: ceiling and visibility are OK
Clouds: unknown
Weather: no significant weather observed at this time

METAR text: OERK 252200Z 32003KT CAVOK 32/M02 Q1009 NOSIG
Conditions at: OERK (RIYADH/KING KHAL, SA) observed 2200 UTC 25 June 2019
Temperature: 32.0°C (90°F)
Dewpoint: -2.0°C (28°F) [RH = 11%]
Pressure (altimeter): 29.79 inches Hg (1009.0 mb)
Winds: from the NW (320 degrees) at 3 MPH (3 knots; 1.5 m/s)
Visibility: 6 or more miles (10+ km)
Ceiling: ceiling and visibility are OK
Clouds: unknown
Weather: no significant weather observed at this time

METAR text: OERK 252100Z 31003KT CAVOK 34/M02 Q1009 NOSIG
Conditions at: OERK (RIYADH/KING KHAL, SA) observed 2100 UTC 25 June 2019
Temperature: 34.0°C (93°F)
Dewpoint: -2.0°C (28°F) [RH = 10%]
Pressure (altimeter): 29.79 inches Hg (1009.0 mb)
Winds: from the NW (310 degrees) at 3 MPH (3 knots; 1.5 m/s)
Visibility: 6 or more miles (10+ km)
Ceiling: ceiling and visibility are OK
Clouds: unknown
Weather: no significant weather observed at this time

METAR text: OERK 252000Z 34003KT CAVOK 34/M02 Q1010 NOSIG
Conditions at: OERK (RIYADH/KING KHAL, SA) observed 2000 UTC 25 June 2019
Temperature: 34.0°C (93°F)
Dewpoint: -2.0°C (28°F) [RH = 10%]
Pressure (altimeter): 29.82 inches Hg (1010.0 mb)
Winds: from the NNW (340 degrees) at 3 MPH (3 knots; 1.5 m/s)
Visibility: 6 or more miles (10+ km)
Ceiling: ceiling and visibility are OK
Clouds: unknown
Weather: no significant weather observed at this time

METAR text: OERK 251900Z 03003KT CAVOK 36/M02 Q1010 NOSIG
Conditions at: OERK (RIYADH/KING KHAL, SA) observed 1900 UTC 25 June 2019
Temperature: 36.0°C (97°F)
Dewpoint: -2.0°C (28°F) [RH =  9%]
Pressure (altimeter): 29.82 inches Hg (1010.0 mb)
Winds: from the NNE (30 degrees) at 3 MPH (3 knots; 1.5 m/s)
Visibility: 6 or more miles (10+ km)
Ceiling: ceiling and visibility are OK
Clouds: unknown
Weather: no significant weather observed at this time

METAR text: OERK 251800Z 04004KT CAVOK 37/M01 Q1010 NOSIG
Conditions at: OERK (RIYADH/KING KHAL, SA) observed 1800 UTC 25 June 2019
Temperature: 37.0°C (99°F)
Dewpoint: -1.0°C (30°F) [RH =  9%]
Pressure (altimeter): 29.82 inches Hg (1010.0 mb)
Winds: from the NE (40 degrees) at 5 MPH (4 knots; 2.1 m/s)
Visibility: 6 or more miles (10+ km)
Ceiling: ceiling and visibility are OK
Clouds: unknown
Weather: no significant weather observed at this time

METAR text: OERK 251700Z 04005KT CAVOK 39/M01 Q1009 NOSIG
Conditions at: OERK (RIYADH/KING KHAL, SA) observed 1700 UTC 25 June 2019
Temperature: 39.0°C (102°F)
Dewpoint: -1.0°C (30°F) [RH =  8%]
Pressure (altimeter): 29.79 inches Hg (1009.0 mb)
Winds: from the NE (40 degrees) at 6 MPH (5 knots; 2.6 m/s)
Visibility: 6 or more miles (10+ km)
Ceiling: ceiling and visibility are OK
Clouds: unknown
Weather: no significant weather observed at this time

METAR text: OERK 251600Z 03006KT CAVOK 41/M02 Q1009 NOSIG
Conditions at: OERK (RIYADH/KING KHAL, SA) observed 1600 UTC 25 June 2019
Temperature: 41.0°C (106°F)
Dewpoint: -2.0°C (28°F) [RH =  7%]
Pressure (altimeter): 29.79 inches Hg (1009.0 mb)
Winds: from the NNE (30 degrees) at 7 MPH (6 knots; 3.1 m/s)
Visibility: 6 or more miles (10+ km)
Ceiling: ceiling and visibility are OK
Clouds: unknown
Weather: no significant weather observed at this time

METAR text: OERK 251500Z 06009KT CAVOK 42/M01 Q1008 NOSIG
Conditions at: OERK (RIYADH/KING KHAL, SA) observed 1500 UTC 25 June 2019
Temperature: 42.0°C (108°F)
Dewpoint: -1.0°C (30°F) [RH =  7%]
Pressure (altimeter): 29.76 inches Hg (1008.0 mb)
Winds: from the ENE (60 degrees) at 10 MPH (9 knots; 4.6 m/s)
Visibility: 6 or more miles (10+ km)
Ceiling: ceiling and visibility are OK
Clouds: unknown
Weather: no significant weather observed at this time

METAR text: OERK 251400Z 06009KT CAVOK 43/00 Q1008 NOSIG
Conditions at: OERK (RIYADH/KING KHAL, SA) observed 1400 UTC 25 June 2019
Temperature: 43.0°C (109°F)
Dewpoint: 0.0°C (32°F) [RH =  7%]
Pressure (altimeter): 29.76 inches Hg (1008.0 mb)
Winds: from the ENE (60 degrees) at 10 MPH (9 knots; 4.6 m/s)
Visibility: 6 or more miles (10+ km)
Ceiling: ceiling and visibility are OK
Clouds: unknown
Weather: no significant weather observed at this time

METAR text: OERK 251300Z 05005KT CAVOK 44/M02 Q1008 NOSIG
Conditions at: OERK (RIYADH/KING KHAL, SA) observed 1300 UTC 25 June 2019
Temperature: 44.0°C (111°F)
Dewpoint: -2.0°C (28°F) [RH =  6%]
Pressure (altimeter): 29.76 inches Hg (1008.0 mb)
Winds: from the NE (50 degrees) at 6 MPH (5 knots; 2.6 m/s)
Visibility: 6 or more miles (10+ km)
Ceiling: ceiling and visibility are OK
Clouds: unknown
Weather: no significant weather observed at this time

METAR text: OERK 251200Z 08005KT CAVOK 44/00 Q1008 NOSIG
Conditions at: OERK (RIYADH/KING KHAL, SA) observed 1200 UTC 25 June 2019
Temperature: 44.0°C (111°F)
Dewpoint: 0.0°C (32°F) [RH =  7%]
Pressure (altimeter): 29.76 inches Hg (1008.0 mb)
Winds: from the E (80 degrees) at 6 MPH (5 knots; 2.6 m/s)
Visibility: 6 or more miles (10+ km)
Ceiling: ceiling and visibility are OK
Clouds: unknown
Weather: no significant weather observed at this time

METAR text: OERK 251100Z 25004KT CAVOK 44/02 Q1009 NOSIG
Conditions at: OERK (RIYADH/KING KHAL, SA) observed 1100 UTC 25 June 2019
Temperature: 44.0°C (111°F)
Dewpoint: 2.0°C (36°F) [RH =  8%]
Pressure (altimeter): 29.79 inches Hg (1009.0 mb)
Winds: from the WSW (250 degrees) at 5 MPH (4 knots; 2.1 m/s)
Visibility: 6 or more miles (10+ km)
Ceiling: ceiling and visibility are OK
Clouds: unknown
Weather: no significant weather observed at this time

METAR text: OERK 251000Z 32006KT CAVOK 44/02 Q1009 NOSIG
Conditions at: OERK (RIYADH/KING KHAL, SA) observed 1000 UTC 25 June 2019
Temperature: 44.0°C (111°F)
Dewpoint: 2.0°C (36°F) [RH =  8%]
Pressure (altimeter): 29.79 inches Hg (1009.0 mb)
Winds: from the NW (320 degrees) at 7 MPH (6 knots; 3.1 m/s)
Visibility: 6 or more miles (10+ km)
Ceiling: ceiling and visibility are OK
Clouds: unknown
Weather: no significant weather observed at this time

METAR text: OERK 250900Z 28008KT CAVOK 42/01 Q1010 NOSIG
Conditions at: OERK (RIYADH/KING KHAL, SA) observed 0900 UTC 25 June 2019
Temperature: 42.0°C (108°F)
Dewpoint: 1.0°C (34°F) [RH =  8%]
Pressure (altimeter): 29.82 inches Hg (1010.0 mb)
Winds: from the W (280 degrees) at 9 MPH (8 knots; 4.1 m/s)
Visibility: 6 or more miles (10+ km)
Ceiling: ceiling and visibility are OK
Clouds: unknown
Weather: no significant weather observed at this time

METAR text: OERK 250800Z 36007KT CAVOK 42/01 Q1010 NOSIG
Conditions at: OERK (RIYADH/KING KHAL, SA) observed 0800 UTC 25 June 2019
Temperature: 42.0°C (108°F)
Dewpoint: 1.0°C (34°F) [RH =  8%]
Pressure (altimeter): 29.82 inches Hg (1010.0 mb)
Winds: from the N (360 degrees) at 8 MPH (7 knots; 3.6 m/s)
Visibility: 6 or more miles (10+ km)
Ceiling: ceiling and visibility are OK
Clouds: unknown
Weather: no significant weather observed at this time

METAR text: OERK 250700Z 33010KT CAVOK 42/01 Q1010 NOSIG
Conditions at: OERK (RIYADH/KING KHAL, SA) observed 0700 UTC 25 June 2019
Temperature: 42.0°C (108°F)
Dewpoint: 1.0°C (34°F) [RH =  8%]
Pressure (altimeter): 29.82 inches Hg (1010.0 mb)
Winds: from the NNW (330 degrees) at 12 MPH (10 knots; 5.1 m/s)
Visibility: 6 or more miles (10+ km)
Ceiling: ceiling and visibility are OK
Clouds: unknown
Weather: no significant weather observed at this time

METAR text: OERK 250600Z 32010KT CAVOK 40/01 Q1010 NOSIG
Conditions at: OERK (RIYADH/KING KHAL, SA) observed 0600 UTC 25 June 2019
Temperature: 40.0°C (104°F)
Dewpoint: 1.0°C (34°F) [RH =  9%]
Pressure (altimeter): 29.82 inches Hg (1010.0 mb)
Winds: from the NW (320 degrees) at 12 MPH (10 knots; 5.1 m/s)
Visibility: 6 or more miles (10+ km)
Ceiling: ceiling and visibility are OK
Clouds: unknown
Weather: no significant weather observed at this time

METAR text: OERK 250500Z 31006KT CAVOK 36/M01 Q1010 NOSIG
Conditions at: OERK (RIYADH/KING KHAL, SA) observed 0500 UTC 25 June 2019
Temperature: 36.0°C (97°F)
Dewpoint: -1.0°C (30°F) [RH = 10%]
Pressure (altimeter): 29.82 inches Hg (1010.0 mb)
Winds: from the NW (310 degrees) at 7 MPH (6 knots; 3.1 m/s)
Visibility: 6 or more miles (10+ km)
Ceiling: ceiling and visibility are OK
Clouds: unknown
Weather: no significant weather observed at this time

METAR text: OERK 250400Z 31005KT CAVOK 31/00 Q1010 NOSIG
Conditions at: OERK (RIYADH/KING KHAL, SA) observed 0400 UTC 25 June 2019
Temperature: 31.0°C (88°F)
Dewpoint: 0.0°C (32°F) [RH = 14%]
Pressure (altimeter): 29.82 inches Hg (1010.0 mb)
Winds: from the NW (310 degrees) at 6 MPH (5 knots; 2.6 m/s)
Visibility: 6 or more miles (10+ km)
Ceiling: ceiling and visibility are OK
Clouds: unknown
Weather: no significant weather observed at this time

METAR text: OERK 250300Z 32006KT CAVOK 29/00 Q1010 NOSIG
Conditions at: OERK (RIYADH/KING KHAL, SA) observed 0300 UTC 25 June 2019
Temperature: 29.0°C (84°F)
Dewpoint: 0.0°C (32°F) [RH = 15%]
Pressure (altimeter): 29.82 inches Hg (1010.0 mb)
Winds: from the NW (320 degrees) at 7 MPH (6 knots; 3.1 m/s)
Visibility: 6 or more miles (10+ km)
Ceiling: ceiling and visibility are OK
Clouds: unknown
Weather: no significant weather observed at this time

METAR text: OERK 250200Z 28005KT CAVOK 29/M01 Q1009 NOSIG
Conditions at: OERK (RIYADH/KING KHAL, SA) observed 0200 UTC 25 June 2019
Temperature: 29.0°C (84°F)
Dewpoint: -1.0°C (30°F) [RH = 14%]
Pressure (altimeter): 29.79 inches Hg (1009.0 mb)
Winds: from the W (280 degrees) at 6 MPH (5 knots; 2.6 m/s)
Visibility: 6 or more miles (10+ km)
Ceiling: ceiling and visibility are OK
Clouds: unknown
Weather: no significant weather observed at this time

METAR text: OERK 250100Z 30004KT CAVOK 30/M01 Q1008 NOSIG
Conditions at: OERK (RIYADH/KING KHAL, SA) observed 0100 UTC 25 June 2019
Temperature: 30.0°C (86°F)
Dewpoint: -1.0°C (30°F) [RH = 13%]
Pressure (altimeter): 29.76 inches Hg (1008.0 mb)
Winds: from the WNW (300 degrees) at 5 MPH (4 knots; 2.1 m/s)
Visibility: 6 or more miles (10+ km)
Ceiling: ceiling and visibility are OK
Clouds: unknown
Weather: no significant weather observed at this time

METAR text: OERK 250000Z 32002KT CAVOK 31/M01 Q1008 NOSIG
Conditions at: OERK (RIYADH/KING KHAL, SA) observed 0000 UTC 25 June 2019
Temperature: 31.0°C (88°F)
Dewpoint: -1.0°C (30°F) [RH = 13%]
Pressure (altimeter): 29.76 inches Hg (1008.0 mb)
Winds: from the NW (320 degrees) at 2 MPH (2 knots; 1.0 m/s)
Visibility: 6 or more miles (10+ km)
Ceiling: ceiling and visibility are OK
Clouds: unknown
Weather: no significant weather observed at this time

METAR text: OERK 242300Z 22002KT CAVOK 32/M01 Q1008 NOSIG
Conditions at: OERK (RIYADH/KING KHAL, SA) observed 2300 UTC 24 June 2019
Temperature: 32.0°C (90°F)
Dewpoint: -1.0°C (30°F) [RH = 12%]
Pressure (altimeter): 29.76 inches Hg (1008.0 mb)
Winds: from the SW (220 degrees) at 2 MPH (2 knots; 1.0 m/s)
Visibility: 6 or more miles (10+ km)
Ceiling: ceiling and visibility are OK
Clouds: unknown
Weather: no significant weather observed at this time

METAR text: OERK 242200Z 00000KT CAVOK 33/00 Q1008 NOSIG
Conditions at: OERK (RIYADH/KING KHAL, SA) observed 2200 UTC 24 June 2019
Temperature: 33.0°C (91°F)
Dewpoint: 0.0°C (32°F) [RH = 12%]
Pressure (altimeter): 29.76 inches Hg (1008.0 mb)
Winds: calm
Visibility: 6 or more miles (10+ km)
Ceiling: ceiling and visibility are OK
Clouds: unknown
Weather: no significant weather observed at this time

METAR text: OERK 242100Z 04004KT CAVOK 33/00 Q1009 NOSIG
Conditions at: OERK (RIYADH/KING KHAL, SA) observed 2100 UTC 24 June 2019
Temperature: 33.0°C (91°F)
Dewpoint: 0.0°C (32°F) [RH = 12%]
Pressure (altimeter): 29.79 inches Hg (1009.0 mb)
Winds: from the NE (40 degrees) at 5 MPH (4 knots; 2.1 m/s)
Visibility: 6 or more miles (10+ km)
Ceiling: ceiling and visibility are OK
Clouds: unknown
Weather: no significant weather observed at this time

METAR text: OERK 242000Z 01005KT CAVOK 33/00 Q1009 NOSIG
Conditions at: OERK (RIYADH/KING KHAL, SA) observed 2000 UTC 24 June 2019
Temperature: 33.0°C (91°F)
Dewpoint: 0.0°C (32°F) [RH = 12%]
Pressure (altimeter): 29.79 inches Hg (1009.0 mb)
Winds: from the N (10 degrees) at 6 MPH (5 knots; 2.6 m/s)
Visibility: 6 or more miles (10+ km)
Ceiling: ceiling and visibility are OK
Clouds: unknown
Weather: no significant weather observed at this time

METAR text: OERK 241900Z 00000KT CAVOK 33/00 Q1009 NOSIG
Conditions at: OERK (RIYADH/KING KHAL, SA) observed 1900 UTC 24 June 2019
Temperature: 33.0°C (91°F)
Dewpoint: 0.0°C (32°F) [RH = 12%]
Pressure (altimeter): 29.79 inches Hg (1009.0 mb)
Winds: calm
Visibility: 6 or more miles (10+ km)
Ceiling: ceiling and visibility are OK
Clouds: unknown
Weather: no significant weather observed at this time

METAR text: OERK 241800Z 10004KT CAVOK 36/00 Q1008 NOSIG
Conditions at: OERK (RIYADH/KING KHAL, SA) observed 1800 UTC 24 June 2019
Temperature: 36.0°C (97°F)
Dewpoint: 0.0°C (32°F) [RH = 10%]
Pressure (altimeter): 29.76 inches Hg (1008.0 mb)
Winds: from the E (100 degrees) at 5 MPH (4 knots; 2.1 m/s)
Visibility: 6 or more miles (10+ km)
Ceiling: ceiling and visibility are OK
Clouds: unknown
Weather: no significant weather observed at this time

METAR text: OERK 241700Z 05004KT CAVOK 37/M01 Q1008 NOSIG
Conditions at: OERK (RIYADH/KING KHAL, SA) observed 1700 UTC 24 June 2019
Temperature: 37.0°C (99°F)
Dewpoint: -1.0°C (30°F) [RH =  9%]
Pressure (altimeter): 29.76 inches Hg (1008.0 mb)
Winds: from the NE (50 degrees) at 5 MPH (4 knots; 2.1 m/s)
Visibility: 6 or more miles (10+ km)
Ceiling: ceiling and visibility are OK
Clouds: unknown
Weather: no significant weather observed at this time

Forecast for: OERK (RIYADH/KING KHAL, SA)
Text: TAF OERK 252300Z 2600/2706 32010KT 8000 NSC
Forecast period: 0000 to 0600 UTC 26 June 2019
Forecast type: FROM: standard forecast or significant change
Winds: from the NW (320 degrees) at 12 MPH (10 knots; 5.1 m/s)
Visibility: 5 miles (8 km)
Ceiling: unknown
Clouds: missing
Weather: no significant weather forecast for this period
Text: BECMG 2606/2608 04015KT
Forecast period: 0600 UTC 26 June 2019 to 0600 UTC 27 June 2019
Forecast type: BECOMING: Conditions expected to become as follows by 0800 UTC 26 June 2019
Winds: from the NE (40 degrees) at 17 MPH (15 knots; 7.7 m/s)
Visibility: 5 miles (8 km)
Ceiling: unknown
Clouds: missing
Weather: no significant weather forecast for this period
Text: TEMPO 2606/2614 4000 BLDU
Forecast period: 0600 to 1400 UTC 26 June 2019
Forecast type: TEMPORARY: The following changes expected for less than half the time period
Visibility: 2.49 miles (4.01 km)
Ceiling: unknown
Clouds: missing
Weather: BLDU  (blowing dust)